Time,TemperatureF,DewpointF,PressureIn,WindDirection,WindDirectionDegrees,WindSpeedMPH,WindSpeedGustMPH,Humidity,HourlyPrecipIn,Conditions,Clouds,dailyrainin,SolarRadiationWatts/m^2,SoftwareType,DateUTC
2013-07-02 00:02:00,63.0,61.0,-100.00,SSE,157,5.0,11.0,93,0.00,,,0.36,0.000000,,2013-07-02 04:02:00,
2013-07-02 00:42:00,64.0,62.0,-100.00,SSE,157,6.0,12.0,92,0.00,,,0.36,0.000000,,2013-07-02 04:42:00,
2013-07-02 00:54:00,64.0,62.0,-100.00,SSE,157,6.0,12.0,92,0.00,,,0.36,0.000000,,2013-07-02 04:54:00,
2013-07-02 01:02:00,64.0,62.0,-100.00,SSE,157,6.0,12.0,92,0.00,,,0.36,0.000000,,2013-07-02 05:02:00,
2013-07-02 01:32:00,64.0,62.0,-100.00,SSE,156,6.0,14.0,94,0.00,,,0.36,0.000000,,2013-07-02 05:32:00,
2013-07-02 01:43:00,64.0,62.0,-100.00,SSE,156,6.0,14.0,94,0.00,,,0.36,0.000000,,2013-07-02 05:43:00,
2013-07-02 01:53:00,64.0,62.0,-100.00,SSE,156,6.0,14.0,94,0.00,,,0.36,0.000000,,2013-07-02 05:53:00,
2013-07-02 02:01:00,64.0,62.0,-100.00,SSE,156,6.0,14.0,94,0.00,,,0.36,0.000000,,2013-07-02 06:01:00,
2013-07-02 02:43:00,63.0,62.0,-100.00,South,181,3.0,15.0,98,0.02,,,0.37,0.000000,,2013-07-02 06:43:00,
2013-07-02 02:53:00,63.0,62.0,-100.00,South,181,3.0,15.0,98,0.02,,,0.37,0.000000,,2013-07-02 06:53:00,
2013-07-02 03:01:00,63.0,62.0,-100.00,South,181,3.0,15.0,98,0.02,,,0.37,0.000000,,2013-07-02 07:01:00,
2013-07-02 03:44:00,63.0,63.0,-100.00,SSE,166,6.0,15.0,100,0.01,,,0.34,0.000000,,2013-07-02 07:44:00,
2013-07-02 03:53:00,63.0,63.0,-100.00,SSE,166,6.0,15.0,100,0.01,,,0.34,0.000000,,2013-07-02 07:53:00,
2013-07-02 04:02:00,63.0,63.0,-100.00,SSE,166,6.0,15.0,100,0.01,,,0.34,0.000000,,2013-07-02 08:02:00,
2013-07-02 04:33:00,62.0,62.0,-100.00,SSE,158,4.0,12.0,100,0.02,,,0.34,0.000000,,2013-07-02 08:33:00,
2013-07-02 04:44:00,62.0,62.0,-100.00,SSE,158,4.0,12.0,100,0.02,,,0.34,0.000000,,2013-07-02 08:44:00,
2013-07-02 04:53:00,62.0,62.0,-100.00,SSE,158,4.0,12.0,100,0.02,,,0.34,0.000000,,2013-07-02 08:53:00,
2013-07-02 05:02:00,62.0,62.0,-100.00,SSE,158,4.0,12.0,100,0.02,,,0.34,0.000000,,2013-07-02 09:02:00,
2013-07-02 05:43:00,62.0,62.0,-100.00,SSE,162,4.0,12.0,100,0.00,,,0.32,0.000000,,2013-07-02 09:43:00,
2013-07-02 05:52:00,62.0,62.0,-100.00,SSE,162,4.0,12.0,100,0.00,,,0.32,0.000000,,2013-07-02 09:52:00,
2013-07-02 06:01:00,62.0,62.0,-100.00,SSE,162,4.0,12.0,100,0.00,,,0.32,0.000000,,2013-07-02 10:01:00,
2013-07-02 06:44:00,62.0,62.0,-100.00,SSE,164,4.0,10.0,100,0.00,,,0.30,0.000000,,2013-07-02 10:44:00,
2013-07-02 06:52:00,62.0,62.0,-100.00,SSE,164,4.0,10.0,100,0.00,,,0.30,0.000000,,2013-07-02 10:52:00,
2013-07-02 07:01:00,62.0,62.0,-100.00,SSE,164,4.0,10.0,100,0.00,,,0.30,0.000000,,2013-07-02 11:01:00,
2013-07-02 07:42:00,62.0,62.0,-100.00,SSE,165,3.0,10.0,100,0.00,,,0.27,2.000000,,2013-07-02 11:42:00,
2013-07-02 07:52:00,62.0,62.0,-100.00,SSE,165,3.0,10.0,100,0.00,,,0.27,2.000000,,2013-07-02 11:52:00,
2013-07-02 08:01:00,62.0,62.0,-100.00,SSE,165,3.0,10.0,100,0.00,,,0.27,2.000000,,2013-07-02 12:01:00,
2013-07-02 08:43:00,63.0,63.0,-100.00,South,169,2.0,7.0,100,0.01,,,0.26,17.000000,,2013-07-02 12:43:00,
2013-07-02 08:52:00,63.0,63.0,-100.00,South,169,2.0,7.0,100,0.01,,,0.26,17.000000,,2013-07-02 12:52:00,
2013-07-02 09:01:00,63.0,63.0,-100.00,South,169,2.0,7.0,100,0.01,,,0.26,17.000000,,2013-07-02 13:01:00,
2013-07-02 09:43:00,63.0,63.0,-100.00,SSE,167,4.0,8.0,100,0.00,,,0.24,68.000000,,2013-07-02 13:43:00,
2013-07-02 09:52:00,63.0,63.0,-100.00,SSE,167,4.0,8.0,100,0.00,,,0.24,68.000000,,2013-07-02 13:52:00,
2013-07-02 10:02:00,63.0,63.0,-100.00,SSE,167,4.0,8.0,100,0.00,,,0.24,68.000000,,2013-07-02 14:02:00,
2013-07-02 10:43:00,63.0,63.0,-100.00,South,169,4.0,10.0,100,0.07,,,0.28,79.000000,,2013-07-02 14:43:00,
2013-07-02 10:53:00,63.0,63.0,-100.00,South,169,4.0,10.0,100,0.07,,,0.28,79.000000,,2013-07-02 14:53:00,
2013-07-02 11:02:00,63.0,63.0,-100.00,South,169,4.0,10.0,100,0.07,,,0.28,79.000000,,2013-07-02 15:02:00,
2013-07-02 11:33:00,66.0,66.0,-100.00,South,169,4.0,11.0,100,0.00,,,0.26,291.000000,,2013-07-02 15:33:00,
2013-07-02 11:44:00,66.0,66.0,-100.00,South,169,4.0,11.0,100,0.00,,,0.26,291.000000,,2013-07-02 15:44:00,
2013-07-02 11:53:00,66.0,66.0,-100.00,South,169,4.0,11.0,100,0.00,,,0.26,291.000000,,2013-07-02 15:53:00,
2013-07-02 12:01:00,66.0,66.0,-100.00,South,169,4.0,11.0,100,0.00,,,0.26,291.000000,,2013-07-02 16:01:00,
2013-07-02 12:43:00,68.0,67.0,-100.00,SSE,161,5.0,9.0,98,0.00,,,0.23,438.000000,,2013-07-02 16:43:00,
2013-07-02 12:52:00,68.0,67.0,-100.00,SSE,161,5.0,9.0,98,0.00,,,0.23,438.000000,,2013-07-02 16:52:00,
2013-07-02 13:02:00,68.0,67.0,-100.00,SSE,161,5.0,9.0,98,0.00,,,0.23,438.000000,,2013-07-02 17:02:00,
2013-07-02 13:43:00,71.0,68.0,-100.00,South,184,4.0,11.0,89,0.00,,,0.22,761.000000,,2013-07-02 17:43:00,
2013-07-02 13:53:00,71.0,68.0,-100.00,South,184,4.0,11.0,89,0.00,,,0.22,761.000000,,2013-07-02 17:53:00,
2013-07-02 14:02:00,71.0,68.0,-100.00,South,184,4.0,11.0,89,0.00,,,0.22,761.000000,,2013-07-02 18:02:00,
2013-07-02 14:43:00,74.0,68.0,-100.00,South,180,5.0,13.0,81,0.00,,,0.22,922.000000,,2013-07-02 18:43:00,
2013-07-02 14:53:00,74.0,68.0,-100.00,South,180,5.0,13.0,81,0.00,,,0.22,922.000000,,2013-07-02 18:53:00,
2013-07-02 15:01:00,74.0,68.0,-100.00,South,180,5.0,13.0,81,0.00,,,0.22,922.000000,,2013-07-02 19:01:00,
2013-07-02 15:34:00,75.0,64.0,-100.00,SSE,159,5.0,13.0,69,0.00,,,0.22,1115.000000,,2013-07-02 19:34:00,
2013-07-02 15:43:00,75.0,64.0,-100.00,SSE,159,5.0,13.0,69,0.00,,,0.22,1115.000000,,2013-07-02 19:43:00,
2013-07-02 15:53:00,75.0,64.0,-100.00,SSE,159,5.0,13.0,69,0.00,,,0.22,1115.000000,,2013-07-02 19:53:00,
2013-07-02 16:02:00,75.0,64.0,-100.00,SSE,159,5.0,13.0,69,0.00,,,0.22,1115.000000,,2013-07-02 20:02:00,
2013-07-02 16:33:00,77.0,64.0,-100.00,South,171,5.0,12.0,65,0.00,,,0.22,1035.000000,,2013-07-02 20:33:00,
2013-07-02 16:43:00,77.0,64.0,-100.00,South,171,5.0,12.0,65,0.00,,,0.22,1035.000000,,2013-07-02 20:43:00,
2013-07-02 16:52:00,77.0,64.0,-100.00,South,171,5.0,12.0,65,0.00,,,0.22,1035.000000,,2013-07-02 20:52:00,
2013-07-02 17:02:00,77.0,64.0,-100.00,South,171,5.0,12.0,65,0.00,,,0.22,1035.000000,,2013-07-02 21:02:00,
2013-07-02 17:44:00,73.0,64.0,-100.00,SSE,159,5.0,13.0,74,0.00,,,0.16,656.000000,,2013-07-02 21:44:00,
2013-07-02 17:52:00,73.0,64.0,-100.00,SSE,159,5.0,13.0,74,0.00,,,0.16,656.000000,,2013-07-02 21:52:00,
2013-07-02 18:01:00,73.0,64.0,-100.00,SSE,159,5.0,13.0,74,0.00,,,0.16,656.000000,,2013-07-02 22:01:00,
2013-07-02 18:34:00,70.0,63.0,-100.00,SSE,166,5.0,12.0,78,0.00,,,0.14,304.000000,,2013-07-02 22:34:00,
2013-07-02 18:43:00,70.0,63.0,-100.00,SSE,166,5.0,12.0,78,0.00,,,0.14,304.000000,,2013-07-02 22:43:00,
2013-07-02 18:53:00,70.0,63.0,-100.00,SSE,166,5.0,12.0,78,0.00,,,0.14,304.000000,,2013-07-02 22:53:00,
2013-07-02 19:01:00,70.0,63.0,-100.00,SSE,166,5.0,12.0,78,0.00,,,0.14,304.000000,,2013-07-02 23:01:00,
2013-07-02 19:33:00,68.0,65.0,-100.00,SSE,156,2.0,9.0,91,0.00,,,0.13,63.000000,,2013-07-02 23:33:00,
2013-07-02 19:44:00,68.0,65.0,-100.00,SSE,156,2.0,9.0,91,0.00,,,0.13,63.000000,,2013-07-02 23:44:00,
2013-07-02 19:52:00,68.0,65.0,-100.00,SSE,156,2.0,9.0,91,0.00,,,0.13,63.000000,,2013-07-02 23:52:00,
2013-07-02 20:01:00,68.0,65.0,-100.00,SSE,156,2.0,9.0,91,0.00,,,0.13,63.000000,,2013-07-03 00:01:00,
2013-07-02 20:33:00,67.0,65.0,-100.00,SSE,155,4.0,6.0,93,0.00,,,0.13,66.000000,,2013-07-03 00:33:00,
2013-07-02 20:44:00,67.0,65.0,-100.00,SSE,155,4.0,6.0,93,0.00,,,0.13,66.000000,,2013-07-03 00:44:00,
2013-07-02 20:52:00,67.0,65.0,-100.00,SSE,155,4.0,6.0,93,0.00,,,0.13,66.000000,,2013-07-03 00:52:00,
2013-07-02 21:01:00,67.0,65.0,-100.00,SSE,155,4.0,6.0,93,0.00,,,0.13,66.000000,,2013-07-03 01:01:00,
2013-07-02 21:33:00,67.0,64.0,-100.00,SSE,159,4.0,9.0,89,0.00,,,0.13,41.000000,,2013-07-03 01:33:00,
2013-07-02 21:43:00,67.0,64.0,-100.00,SSE,159,4.0,9.0,89,0.00,,,0.13,41.000000,,2013-07-03 01:43:00,
2013-07-02 21:59:00,67.0,64.0,-100.00,SSE,159,4.0,9.0,89,0.00,,,0.13,41.000000,,2013-07-03 01:59:00,
2013-07-02 22:05:00,67.0,64.0,-100.00,SSE,159,4.0,9.0,89,0.00,,,0.13,41.000000,,2013-07-03 02:05:00,
2013-07-02 22:40:00,64.0,64.0,-100.00,ESE,115,4.0,15.0,100,0.84,,,0.97,0.000000,,2013-07-03 02:40:00,
2013-07-02 22:46:00,64.0,64.0,-100.00,ESE,115,4.0,15.0,100,0.84,,,0.97,0.000000,,2013-07-03 02:46:00,
2013-07-02 22:59:00,64.0,64.0,-100.00,ESE,115,4.0,15.0,100,0.84,,,0.97,0.000000,,2013-07-03 02:59:00,
2013-07-02 23:05:00,64.0,64.0,-100.00,ESE,115,4.0,15.0,100,0.84,,,0.97,0.000000,,2013-07-03 03:05:00,
2013-07-02 23:49:00,66.0,66.0,-100.00,South,169,7.0,16.0,100,0.57,,,1.54,0.000000,,2013-07-03 03:49:00,